Fayetteville, North Carolina
Current Conditions -  °F | °C
As of 5:53 PM on Thursday 27 Nov 2014 (Local Time) from KFAY Reporting Station
Few Clouds Few Clouds  
Wind Chill: 45°   Ceiling: Unl
Heat Index: 45°   Visibility: 10mi
Dew Point: 35°   Wind: 3mph
Humidity: 68%   Direction: 270°W
Pressure: 30.15"   Gusts: NA
Location:  35.05°N, 78.88°W
Report Text: KFAY 272253Z AUTO 27003KT 10SM FEW046 07/02 A3015 RMK AO2 SLP205 T00720017
Loading
Personal Weather Stations






























Interactive Weather Map New forecast layout! Learn more

10-Day Weather Forecast

Advertisements
Track Severe Weather on mobile